sensor_id;sensor_type;location;lat;lon;timestamp;P1;durP1;ratioP1;P2;durP2;ratioP2
7013;SDS011;3547;50.774;12.918;2023-07-29T00:04:34;0.98;;;0.93;;
7013;SDS011;3547;50.774;12.918;2023-07-29T00:07:00;1.50;;;1.02;;
7013;SDS011;3547;50.774;12.918;2023-07-29T00:09:26;1.00;;;0.90;;
7013;SDS011;3547;50.774;12.918;2023-07-29T00:11:53;0.80;;;0.80;;
7013;SDS011;3547;50.774;12.918;2023-07-29T00:14:19;0.82;;;0.82;;
7013;SDS011;3547;50.774;12.918;2023-07-29T00:16:45;0.85;;;0.82;;
7013;SDS011;3547;50.774;12.918;2023-07-29T00:19:11;0.60;;;0.60;;
7013;SDS011;3547;50.774;12.918;2023-07-29T00:21:37;1.10;;;1.00;;
7013;SDS011;3547;50.774;12.918;2023-07-29T00:24:04;0.77;;;0.77;;
7013;SDS011;3547;50.774;12.918;2023-07-29T00:26:30;0.70;;;0.70;;
7013;SDS011;3547;50.774;12.918;2023-07-29T00:28:58;2.35;;;0.77;;
7013;SDS011;3547;50.774;12.918;2023-07-29T00:31:27;1.20;;;0.80;;
7013;SDS011;3547;50.774;12.918;2023-07-29T00:33:53;1.13;;;1.02;;
7013;SDS011;3547;50.774;12.918;2023-07-29T00:36:19;0.90;;;0.90;;
7013;SDS011;3547;50.774;12.918;2023-07-29T00:38:46;0.80;;;0.80;;
7013;SDS011;3547;50.774;12.918;2023-07-29T00:41:12;0.80;;;0.80;;
7013;SDS011;3547;50.774;12.918;2023-07-29T00:43:40;1.23;;;1.13;;
7013;SDS011;3547;50.774;12.918;2023-07-29T00:46:06;0.68;;;0.68;;
7013;SDS011;3547;50.774;12.918;2023-07-29T00:48:34;2.00;;;0.95;;
7013;SDS011;3547;50.774;12.918;2023-07-29T00:51:00;0.80;;;0.80;;
7013;SDS011;3547;50.774;12.918;2023-07-29T00:53:26;1.77;;;1.20;;
7013;SDS011;3547;50.774;12.918;2023-07-29T00:55:53;1.27;;;0.88;;
7013;SDS011;3547;50.774;12.918;2023-07-29T00:58:19;2.97;;;0.68;;
7013;SDS011;3547;50.774;12.918;2023-07-29T01:00:46;1.10;;;0.75;;
7013;SDS011;3547;50.774;12.918;2023-07-29T01:03:13;0.77;;;0.77;;
7013;SDS011;3547;50.774;12.918;2023-07-29T01:06:18;0.80;;;0.73;;
7013;SDS011;3547;50.774;12.918;2023-07-29T01:12:18;0.77;;;0.77;;
7013;SDS011;3547;50.774;12.918;2023-07-29T01:15:12;0.70;;;0.70;;
7013;SDS011;3547;50.774;12.918;2023-07-29T01:17:38;0.90;;;0.80;;
7013;SDS011;3547;50.774;12.918;2023-07-29T01:20:08;0.52;;;0.52;;
7013;SDS011;3547;50.774;12.918;2023-07-29T01:22:37;0.77;;;0.77;;
7013;SDS011;3547;50.774;12.918;2023-07-29T04:02:46;1.30;;;0.93;;
7013;SDS011;3547;50.774;12.918;2023-07-29T04:21:35;1.40;;;1.00;;
7013;SDS011;3547;50.774;12.918;2023-07-29T04:24:52;0.90;;;0.90;;
7013;SDS011;3547;50.774;12.918;2023-07-29T04:30:44;1.60;;;1.10;;
7013;SDS011;3547;50.774;12.918;2023-07-29T04:33:21;1.05;;;0.95;;
7013;SDS011;3547;50.774;12.918;2023-07-29T04:35:51;0.77;;;0.77;;
7013;SDS011;3547;50.774;12.918;2023-07-29T04:38:29;0.82;;;0.82;;
7013;SDS011;3547;50.774;12.918;2023-07-29T04:41:01;1.15;;;1.05;;
7013;SDS011;3547;50.774;12.918;2023-07-29T04:43:32;0.90;;;0.90;;
7013;SDS011;3547;50.774;12.918;2023-07-29T04:46:01;1.88;;;1.10;;
7013;SDS011;3547;50.774;12.918;2023-07-29T04:48:34;0.90;;;0.90;;
7013;SDS011;3547;50.774;12.918;2023-07-29T04:51:07;1.15;;;1.02;;
7013;SDS011;3547;50.774;12.918;2023-07-29T04:53:40;1.15;;;1.05;;
7013;SDS011;3547;50.774;12.918;2023-07-29T04:56:12;1.00;;;1.00;;
7013;SDS011;3547;50.774;12.918;2023-07-29T04:59:41;1.10;;;1.02;;
7013;SDS011;3547;50.774;12.918;2023-07-29T05:02:29;1.15;;;1.05;;
7013;SDS011;3547;50.774;12.918;2023-07-29T05:05:04;1.08;;;0.98;;
7013;SDS011;3547;50.774;12.918;2023-07-29T05:08:12;1.02;;;0.98;;
7013;SDS011;3547;50.774;12.918;2023-07-29T05:13:18;1.48;;;0.98;;
7013;SDS011;3547;50.774;12.918;2023-07-29T05:27:51;1.05;;;0.95;;
7013;SDS011;3547;50.774;12.918;2023-07-29T05:30:27;1.17;;;1.00;;
7013;SDS011;3547;50.774;12.918;2023-07-29T05:39:55;1.20;;;1.10;;
7013;SDS011;3547;50.774;12.918;2023-07-29T05:45:07;1.02;;;1.00;;
7013;SDS011;3547;50.774;12.918;2023-07-29T05:47:37;0.93;;;0.90;;
7013;SDS011;3547;50.774;12.918;2023-07-29T05:50:13;1.30;;;1.10;;
7013;SDS011;3547;50.774;12.918;2023-07-29T05:56:41;1.15;;;1.00;;
7013;SDS011;3547;50.774;12.918;2023-07-29T05:59:15;1.00;;;0.90;;
7013;SDS011;3547;50.774;12.918;2023-07-29T06:05:05;1.73;;;0.85;;
7013;SDS011;3547;50.774;12.918;2023-07-29T06:07:34;0.63;;;0.63;;
7013;SDS011;3547;50.774;12.918;2023-07-29T06:10:00;0.90;;;0.80;;
7013;SDS011;3547;50.774;12.918;2023-07-29T06:12:27;0.60;;;0.60;;
7013;SDS011;3547;50.774;12.918;2023-07-29T06:14:53;0.80;;;0.80;;
7013;SDS011;3547;50.774;12.918;2023-07-29T06:20:42;0.73;;;0.65;;
7013;SDS011;3547;50.774;12.918;2023-07-29T06:23:08;0.77;;;0.77;;
7013;SDS011;3547;50.774;12.918;2023-07-29T06:25:34;0.50;;;0.50;;
7013;SDS011;3547;50.774;12.918;2023-07-29T07:16:39;0.68;;;0.68;;
7013;SDS011;3547;50.774;12.918;2023-07-29T09:06:05;0.70;;;0.70;;
7013;SDS011;3547;50.774;12.918;2023-07-29T09:11:58;3.40;;;0.77;;
7013;SDS011;3547;50.774;12.918;2023-07-29T09:14:39;0.55;;;0.55;;
7013;SDS011;3547;50.774;12.918;2023-07-29T09:20:29;0.50;;;0.50;;
7013;SDS011;3547;50.774;12.918;2023-07-29T09:22:59;0.55;;;0.55;;
7013;SDS011;3547;50.774;12.918;2023-07-29T09:25:27;0.50;;;0.50;;
7013;SDS011;3547;50.774;12.918;2023-07-29T09:28:00;0.57;;;0.57;;
7013;SDS011;3547;50.774;12.918;2023-07-29T09:30:47;0.60;;;0.60;;
7013;SDS011;3547;50.774;12.918;2023-07-29T09:33:17;0.65;;;0.65;;
7013;SDS011;3547;50.774;12.918;2023-07-29T09:35:44;0.88;;;0.88;;
7013;SDS011;3547;50.774;12.918;2023-07-29T09:38:14;1.35;;;0.80;;
7013;SDS011;3547;50.774;12.918;2023-07-29T09:40:42;0.60;;;0.60;;
7013;SDS011;3547;50.774;12.918;2023-07-29T09:43:12;0.70;;;0.70;;
7013;SDS011;3547;50.774;12.918;2023-07-29T09:45:48;1.00;;;0.90;;
7013;SDS011;3547;50.774;12.918;2023-07-29T09:49:27;1.02;;;0.88;;
7013;SDS011;3547;50.774;12.918;2023-07-29T09:52:06;1.02;;;0.93;;
7013;SDS011;3547;50.774;12.918;2023-07-29T09:54:36;0.88;;;0.75;;
7013;SDS011;3547;50.774;12.918;2023-07-29T09:57:04;0.63;;;0.63;;
7013;SDS011;3547;50.774;12.918;2023-07-29T09:59:36;0.90;;;0.90;;
7013;SDS011;3547;50.774;12.918;2023-07-29T10:02:10;0.50;;;0.50;;
7013;SDS011;3547;50.774;12.918;2023-07-29T10:05:01;0.50;;;0.50;;
7013;SDS011;3547;50.774;12.918;2023-07-29T10:10:54;0.75;;;0.65;;
7013;SDS011;3547;50.774;12.918;2023-07-29T10:13:21;2.22;;;1.50;;
7013;SDS011;3547;50.774;12.918;2023-07-29T10:15:50;1.23;;;1.02;;
7013;SDS011;3547;50.774;12.918;2023-07-29T10:18:35;0.50;;;0.50;;
7013;SDS011;3547;50.774;12.918;2023-07-29T10:21:02;0.55;;;0.55;;
7013;SDS011;3547;50.774;12.918;2023-07-29T10:23:38;0.55;;;0.55;;
7013;SDS011;3547;50.774;12.918;2023-07-29T10:26:10;0.50;;;0.50;;
7013;SDS011;3547;50.774;12.918;2023-07-29T10:32:30;0.50;;;0.50;;
7013;SDS011;3547;50.774;12.918;2023-07-29T10:35:05;0.40;;;0.40;;
7013;SDS011;3547;50.774;12.918;2023-07-29T10:38:29;0.45;;;0.45;;
7013;SDS011;3547;50.774;12.918;2023-07-29T10:45:16;0.45;;;0.45;;
7013;SDS011;3547;50.774;12.918;2023-07-29T10:54:00;0.60;;;0.60;;
7013;SDS011;3547;50.774;12.918;2023-07-29T10:56:33;0.55;;;0.30;;
7013;SDS011;3547;50.774;12.918;2023-07-29T11:25:05;0.60;;;0.60;;
7013;SDS011;3547;50.774;12.918;2023-07-29T11:59:30;0.60;;;0.60;;
7013;SDS011;3547;50.774;12.918;2023-07-29T12:21:13;0.47;;;0.47;;
7013;SDS011;3547;50.774;12.918;2023-07-29T12:23:40;0.93;;;0.60;;
7013;SDS011;3547;50.774;12.918;2023-07-29T12:26:06;0.22;;;0.22;;
7013;SDS011;3547;50.774;12.918;2023-07-29T12:28:33;0.70;;;0.70;;
7013;SDS011;3547;50.774;12.918;2023-07-29T12:30:59;0.55;;;0.55;;
7013;SDS011;3547;50.774;12.918;2023-07-29T12:33:35;0.98;;;0.65;;
7013;SDS011;3547;50.774;12.918;2023-07-29T12:36:03;0.75;;;0.63;;
7013;SDS011;3547;50.774;12.918;2023-07-29T12:38:29;0.77;;;0.60;;
7013;SDS011;3547;50.774;12.918;2023-07-29T12:40:56;0.47;;;0.47;;
7013;SDS011;3547;50.774;12.918;2023-07-29T12:43:22;0.65;;;0.65;;
7013;SDS011;3547;50.774;12.918;2023-07-29T12:45:51;0.70;;;0.70;;
7013;SDS011;3547;50.774;12.918;2023-07-29T12:48:18;0.50;;;0.50;;
7013;SDS011;3547;50.774;12.918;2023-07-29T12:50:44;0.57;;;0.57;;
7013;SDS011;3547;50.774;12.918;2023-07-29T12:53:11;0.65;;;0.65;;
7013;SDS011;3547;50.774;12.918;2023-07-29T12:55:44;1.10;;;0.65;;
7013;SDS011;3547;50.774;12.918;2023-07-29T13:03:48;1.73;;;0.50;;
7013;SDS011;3547;50.774;12.918;2023-07-29T13:45:08;0.82;;;0.82;;
7013;SDS011;3547;50.774;12.918;2023-07-29T14:04:57;0.85;;;0.80;;
7013;SDS011;3547;50.774;12.918;2023-07-29T14:27:28;1.13;;;1.00;;
7013;SDS011;3547;50.774;12.918;2023-07-29T14:30:05;0.80;;;0.80;;
7013;SDS011;3547;50.774;12.918;2023-07-29T14:41:56;1.00;;;1.00;;
7013;SDS011;3547;50.774;12.918;2023-07-29T14:44:23;1.10;;;1.00;;
7013;SDS011;3547;50.774;12.918;2023-07-29T14:46:50;0.90;;;0.90;;
7013;SDS011;3547;50.774;12.918;2023-07-29T15:02:05;1.33;;;1.23;;
7013;SDS011;3547;50.774;12.918;2023-07-29T15:08:20;1.30;;;1.20;;
7013;SDS011;3547;50.774;12.918;2023-07-29T15:10:49;1.20;;;1.10;;
7013;SDS011;3547;50.774;12.918;2023-07-29T15:13:36;1.50;;;1.33;;
7013;SDS011;3547;50.774;12.918;2023-07-29T15:16:03;3.10;;;1.35;;
7013;SDS011;3547;50.774;12.918;2023-07-29T15:18:40;3.30;;;1.08;;
7013;SDS011;3547;50.774;12.918;2023-07-29T15:21:06;1.45;;;1.35;;
7013;SDS011;3547;50.774;12.918;2023-07-29T15:23:40;0.93;;;0.93;;
7013;SDS011;3547;50.774;12.918;2023-07-29T15:26:07;0.95;;;0.95;;
7013;SDS011;3547;50.774;12.918;2023-07-29T15:28:34;1.00;;;1.00;;
7013;SDS011;3547;50.774;12.918;2023-07-29T15:31:00;1.30;;;1.20;;
7013;SDS011;3547;50.774;12.918;2023-07-29T15:33:27;1.30;;;1.20;;
7013;SDS011;3547;50.774;12.918;2023-07-29T15:36:07;0.98;;;0.98;;
7013;SDS011;3547;50.774;12.918;2023-07-29T15:38:33;1.20;;;1.10;;
7013;SDS011;3547;50.774;12.918;2023-07-29T15:41:00;1.30;;;1.20;;
7013;SDS011;3547;50.774;12.918;2023-07-29T15:43:27;1.23;;;1.13;;
7013;SDS011;3547;50.774;12.918;2023-07-29T15:45:55;1.30;;;1.20;;
7013;SDS011;3547;50.774;12.918;2023-07-29T16:17:38;1.10;;;1.00;;
7013;SDS011;3547;50.774;12.918;2023-07-29T16:20:04;1.65;;;1.08;;
7013;SDS011;3547;50.774;12.918;2023-07-29T16:22:31;0.85;;;0.85;;
7013;SDS011;3547;50.774;12.918;2023-07-29T16:24:58;1.23;;;0.98;;
7013;SDS011;3547;50.774;12.918;2023-07-29T16:27:24;1.20;;;1.10;;
7013;SDS011;3547;50.774;12.918;2023-07-29T16:29:52;1.17;;;1.00;;
7013;SDS011;3547;50.774;12.918;2023-07-29T16:32:21;1.58;;;1.13;;
7013;SDS011;3547;50.774;12.918;2023-07-29T16:34:48;2.13;;;1.42;;
7013;SDS011;3547;50.774;12.918;2023-07-29T16:37:14;0.70;;;0.70;;
7013;SDS011;3547;50.774;12.918;2023-07-29T16:39:41;3.08;;;0.93;;
7013;SDS011;3547;50.774;12.918;2023-07-29T16:42:07;1.45;;;0.90;;
7013;SDS011;3547;50.774;12.918;2023-07-29T16:44:35;1.45;;;1.00;;
7013;SDS011;3547;50.774;12.918;2023-07-29T16:47:01;1.05;;;1.02;;
7013;SDS011;3547;50.774;12.918;2023-07-29T16:49:27;2.42;;;1.08;;
7013;SDS011;3547;50.774;12.918;2023-07-29T16:51:55;2.35;;;1.23;;
7013;SDS011;3547;50.774;12.918;2023-07-29T16:54:21;1.75;;;0.90;;
7013;SDS011;3547;50.774;12.918;2023-07-29T16:56:47;1.15;;;1.00;;
7013;SDS011;3547;50.774;12.918;2023-07-29T16:59:14;1.05;;;0.95;;
7013;SDS011;3547;50.774;12.918;2023-07-29T17:01:40;2.00;;;1.05;;
7013;SDS011;3547;50.774;12.918;2023-07-29T17:04:06;1.90;;;1.00;;
7013;SDS011;3547;50.774;12.918;2023-07-29T17:06:37;1.00;;;0.90;;
7013;SDS011;3547;50.774;12.918;2023-07-29T17:09:05;0.90;;;0.90;;
7013;SDS011;3547;50.774;12.918;2023-07-29T17:11:34;1.67;;;0.80;;
7013;SDS011;3547;50.774;12.918;2023-07-29T17:14:00;1.60;;;0.88;;
7013;SDS011;3547;50.774;12.918;2023-07-29T17:16:26;0.70;;;0.70;;
7013;SDS011;3547;50.774;12.918;2023-07-29T17:18:52;1.85;;;1.15;;
7013;SDS011;3547;50.774;12.918;2023-07-29T17:21:18;1.23;;;1.00;;
7013;SDS011;3547;50.774;12.918;2023-07-29T17:23:45;2.10;;;1.08;;
7013;SDS011;3547;50.774;12.918;2023-07-29T17:26:11;2.42;;;1.00;;
7013;SDS011;3547;50.774;12.918;2023-07-29T17:28:37;3.28;;;1.50;;
7013;SDS011;3547;50.774;12.918;2023-07-29T17:31:03;1.00;;;0.93;;
7013;SDS011;3547;50.774;12.918;2023-07-29T17:33:29;1.80;;;0.82;;
7013;SDS011;3547;50.774;12.918;2023-07-29T17:35:56;0.80;;;0.68;;
7013;SDS011;3547;50.774;12.918;2023-07-29T17:38:31;0.80;;;0.60;;
7013;SDS011;3547;50.774;12.918;2023-07-29T17:41:06;1.17;;;0.80;;
7013;SDS011;3547;50.774;12.918;2023-07-29T17:51:52;1.35;;;0.88;;
7013;SDS011;3547;50.774;12.918;2023-07-29T17:57:40;0.80;;;0.70;;
7013;SDS011;3547;50.774;12.918;2023-07-29T18:00:08;1.08;;;0.93;;
7013;SDS011;3547;50.774;12.918;2023-07-29T18:02:34;1.42;;;1.05;;
7013;SDS011;3547;50.774;12.918;2023-07-29T18:05:01;2.25;;;0.70;;
7013;SDS011;3547;50.774;12.918;2023-07-29T18:07:27;0.55;;;0.55;;
7013;SDS011;3547;50.774;12.918;2023-07-29T18:09:57;1.17;;;0.90;;
7013;SDS011;3547;50.774;12.918;2023-07-29T18:25:58;1.15;;;1.00;;
7013;SDS011;3547;50.774;12.918;2023-07-29T18:32:42;1.05;;;0.90;;
7013;SDS011;3547;50.774;12.918;2023-07-29T18:35:08;1.75;;;1.20;;
7013;SDS011;3547;50.774;12.918;2023-07-29T18:37:35;1.27;;;1.05;;
7013;SDS011;3547;50.774;12.918;2023-07-29T18:40:02;1.70;;;1.05;;
7013;SDS011;3547;50.774;12.918;2023-07-29T18:42:28;1.33;;;0.88;;
7013;SDS011;3547;50.774;12.918;2023-07-29T18:44:55;2.38;;;1.15;;
7013;SDS011;3547;50.774;12.918;2023-07-29T18:47:22;1.40;;;1.30;;
7013;SDS011;3547;50.774;12.918;2023-07-29T18:49:52;1.33;;;1.10;;
7013;SDS011;3547;50.774;12.918;2023-07-29T18:52:19;2.13;;;0.80;;
7013;SDS011;3547;50.774;12.918;2023-07-29T18:54:45;0.60;;;0.60;;
7013;SDS011;3547;50.774;12.918;2023-07-29T18:57:12;21.15;;;1.30;;
7013;SDS011;3547;50.774;12.918;2023-07-29T18:59:38;2.03;;;0.85;;
7013;SDS011;3547;50.774;12.918;2023-07-29T19:02:05;1.42;;;1.00;;
7013;SDS011;3547;50.774;12.918;2023-07-29T19:04:31;0.93;;;0.93;;
7013;SDS011;3547;50.774;12.918;2023-07-29T19:06:58;3.15;;;1.33;;
7013;SDS011;3547;50.774;12.918;2023-07-29T19:09:24;1.30;;;1.20;;
7013;SDS011;3547;50.774;12.918;2023-07-29T19:11:51;2.97;;;1.83;;
7013;SDS011;3547;50.774;12.918;2023-07-29T19:14:18;2.88;;;1.70;;
7013;SDS011;3547;50.774;12.918;2023-07-29T19:16:44;2.45;;;1.42;;
7013;SDS011;3547;50.774;12.918;2023-07-29T19:19:10;0.95;;;0.85;;
7013;SDS011;3547;50.774;12.918;2023-07-29T19:21:37;1.52;;;0.90;;
7013;SDS011;3547;50.774;12.918;2023-07-29T19:24:07;1.25;;;1.00;;
7013;SDS011;3547;50.774;12.918;2023-07-29T19:26:34;1.20;;;1.10;;
7013;SDS011;3547;50.774;12.918;2023-07-29T19:29:09;1.40;;;1.27;;
7013;SDS011;3547;50.774;12.918;2023-07-29T19:32:00;1.85;;;0.98;;
7013;SDS011;3547;50.774;12.918;2023-07-29T19:34:41;1.25;;;1.15;;
7013;SDS011;3547;50.774;12.918;2023-07-29T19:37:24;1.98;;;1.08;;
7013;SDS011;3547;50.774;12.918;2023-07-29T19:40:06;1.35;;;1.20;;
7013;SDS011;3547;50.774;12.918;2023-07-29T19:42:33;1.38;;;1.27;;
7013;SDS011;3547;50.774;12.918;2023-07-29T19:45:00;2.15;;;1.40;;
7013;SDS011;3547;50.774;12.918;2023-07-29T19:47:30;1.48;;;0.90;;
7013;SDS011;3547;50.774;12.918;2023-07-29T19:50:03;1.20;;;1.02;;
7013;SDS011;3547;50.774;12.918;2023-07-29T19:52:33;1.92;;;1.10;;
7013;SDS011;3547;50.774;12.918;2023-07-29T19:55:01;1.40;;;1.30;;
7013;SDS011;3547;50.774;12.918;2023-07-29T19:57:28;1.27;;;1.17;;
7013;SDS011;3547;50.774;12.918;2023-07-29T19:59:54;1.50;;;1.30;;
7013;SDS011;3547;50.774;12.918;2023-07-29T20:02:21;2.83;;;1.42;;
7013;SDS011;3547;50.774;12.918;2023-07-29T20:04:48;2.67;;;1.73;;
7013;SDS011;3547;50.774;12.918;2023-07-29T20:07:17;2.95;;;1.60;;
7013;SDS011;3547;50.774;12.918;2023-07-29T20:09:44;1.45;;;1.35;;
7013;SDS011;3547;50.774;12.918;2023-07-29T20:12:10;1.77;;;1.40;;
7013;SDS011;3547;50.774;12.918;2023-07-29T20:14:38;3.67;;;1.52;;
7013;SDS011;3547;50.774;12.918;2023-07-29T20:17:05;2.67;;;1.60;;
7013;SDS011;3547;50.774;12.918;2023-07-29T20:19:33;1.35;;;1.23;;
7013;SDS011;3547;50.774;12.918;2023-07-29T20:22:00;1.73;;;1.42;;
7013;SDS011;3547;50.774;12.918;2023-07-29T20:24:26;2.03;;;1.52;;
7013;SDS011;3547;50.774;12.918;2023-07-29T20:26:53;4.72;;;1.20;;
7013;SDS011;3547;50.774;12.918;2023-07-29T20:29:19;3.47;;;1.30;;
7013;SDS011;3547;50.774;12.918;2023-07-29T20:31:46;3.25;;;1.38;;
7013;SDS011;3547;50.774;12.918;2023-07-29T20:34:13;4.03;;;1.30;;
7013;SDS011;3547;50.774;12.918;2023-07-29T20:36:39;2.08;;;1.80;;
7013;SDS011;3547;50.774;12.918;2023-07-29T20:39:06;2.65;;;2.10;;
7013;SDS011;3547;50.774;12.918;2023-07-29T20:41:33;2.30;;;1.90;;
7013;SDS011;3547;50.774;12.918;2023-07-29T20:43:59;4.65;;;1.40;;
7013;SDS011;3547;50.774;12.918;2023-07-29T20:46:25;1.42;;;1.33;;
7013;SDS011;3547;50.774;12.918;2023-07-29T20:48:52;2.63;;;1.58;;
7013;SDS011;3547;50.774;12.918;2023-07-29T20:51:18;1.58;;;1.40;;
7013;SDS011;3547;50.774;12.918;2023-07-29T20:53:45;1.95;;;1.50;;
7013;SDS011;3547;50.774;12.918;2023-07-29T20:56:12;1.45;;;1.20;;
7013;SDS011;3547;50.774;12.918;2023-07-29T20:58:39;3.33;;;1.50;;
7013;SDS011;3547;50.774;12.918;2023-07-29T21:01:06;2.53;;;1.98;;
7013;SDS011;3547;50.774;12.918;2023-07-29T21:03:32;4.07;;;2.25;;
7013;SDS011;3547;50.774;12.918;2023-07-29T21:05:58;4.53;;;2.80;;
7013;SDS011;3547;50.774;12.918;2023-07-29T21:08:25;4.45;;;2.83;;
7013;SDS011;3547;50.774;12.918;2023-07-29T21:10:51;7.10;;;2.75;;
7013;SDS011;3547;50.774;12.918;2023-07-29T21:13:18;3.30;;;2.00;;
7013;SDS011;3547;50.774;12.918;2023-07-29T21:15:54;2.75;;;2.20;;
7013;SDS011;3547;50.774;12.918;2023-07-29T21:18:21;2.38;;;2.00;;
7013;SDS011;3547;50.774;12.918;2023-07-29T21:20:49;2.30;;;1.98;;
7013;SDS011;3547;50.774;12.918;2023-07-29T21:23:16;1.63;;;1.48;;
7013;SDS011;3547;50.774;12.918;2023-07-29T21:25:46;2.92;;;1.92;;
7013;SDS011;3547;50.774;12.918;2023-07-29T21:28:14;2.20;;;1.77;;
7013;SDS011;3547;50.774;12.918;2023-07-29T21:30:44;1.92;;;1.73;;
7013;SDS011;3547;50.774;12.918;2023-07-29T21:33:11;2.33;;;1.55;;
7013;SDS011;3547;50.774;12.918;2023-07-29T21:35:37;3.15;;;1.60;;
7013;SDS011;3547;50.774;12.918;2023-07-29T21:38:03;2.55;;;1.50;;
7013;SDS011;3547;50.774;12.918;2023-07-29T21:40:29;4.25;;;1.45;;
7013;SDS011;3547;50.774;12.918;2023-07-29T21:42:56;1.70;;;1.55;;
7013;SDS011;3547;50.774;12.918;2023-07-29T21:45:22;2.47;;;1.75;;
7013;SDS011;3547;50.774;12.918;2023-07-29T21:51:10;1.98;;;1.75;;
7013;SDS011;3547;50.774;12.918;2023-07-29T21:53:36;2.30;;;1.90;;
7013;SDS011;3547;50.774;12.918;2023-07-29T21:56:03;2.17;;;1.95;;
7013;SDS011;3547;50.774;12.918;2023-07-29T21:58:29;2.40;;;1.70;;
7013;SDS011;3547;50.774;12.918;2023-07-29T22:00:55;1.83;;;1.65;;
7013;SDS011;3547;50.774;12.918;2023-07-29T22:03:21;4.13;;;1.80;;
7013;SDS011;3547;50.774;12.918;2023-07-29T22:05:48;2.65;;;1.95;;
7013;SDS011;3547;50.774;12.918;2023-07-29T22:08:14;3.03;;;1.60;;
7013;SDS011;3547;50.774;12.918;2023-07-29T22:10:41;6.00;;;1.65;;
7013;SDS011;3547;50.774;12.918;2023-07-29T22:13:07;1.85;;;1.63;;
7013;SDS011;3547;50.774;12.918;2023-07-29T22:15:34;3.75;;;1.45;;
7013;SDS011;3547;50.774;12.918;2023-07-29T22:18:01;2.42;;;1.70;;
7013;SDS011;3547;50.774;12.918;2023-07-29T22:20:28;1.92;;;1.73;;
7013;SDS011;3547;50.774;12.918;2023-07-29T22:22:54;3.88;;;2.15;;
7013;SDS011;3547;50.774;12.918;2023-07-29T22:25:21;1.90;;;1.73;;
7013;SDS011;3547;50.774;12.918;2023-07-29T22:27:47;1.75;;;1.65;;
7013;SDS011;3547;50.774;12.918;2023-07-29T22:30:13;2.95;;;1.98;;
7013;SDS011;3547;50.774;12.918;2023-07-29T22:32:39;2.55;;;1.77;;
7013;SDS011;3547;50.774;12.918;2023-07-29T22:35:06;3.47;;;1.90;;
7013;SDS011;3547;50.774;12.918;2023-07-29T22:37:32;2.08;;;1.80;;
7013;SDS011;3547;50.774;12.918;2023-07-29T22:39:58;1.90;;;1.63;;
7013;SDS011;3547;50.774;12.918;2023-07-29T22:42:24;2.17;;;1.70;;
7013;SDS011;3547;50.774;12.918;2023-07-29T22:44:51;9.30;;;1.70;;
7013;SDS011;3547;50.774;12.918;2023-07-29T22:47:17;4.72;;;2.03;;
7013;SDS011;3547;50.774;12.918;2023-07-29T22:49:43;2.53;;;1.42;;
7013;SDS011;3547;50.774;12.918;2023-07-29T22:52:09;5.05;;;1.65;;
7013;SDS011;3547;50.774;12.918;2023-07-29T22:54:35;3.50;;;1.48;;
7013;SDS011;3547;50.774;12.918;2023-07-29T22:57:01;3.85;;;1.38;;
7013;SDS011;3547;50.774;12.918;2023-07-29T22:59:28;9.68;;;2.45;;
7013;SDS011;3547;50.774;12.918;2023-07-29T23:01:54;1.52;;;1.42;;
7013;SDS011;3547;50.774;12.918;2023-07-29T23:04:20;2.08;;;1.67;;
7013;SDS011;3547;50.774;12.918;2023-07-29T23:06:46;1.88;;;1.70;;
7013;SDS011;3547;50.774;12.918;2023-07-29T23:09:12;1.48;;;1.38;;
7013;SDS011;3547;50.774;12.918;2023-07-29T23:11:38;1.73;;;1.38;;
7013;SDS011;3547;50.774;12.918;2023-07-29T23:14:05;1.80;;;1.70;;
7013;SDS011;3547;50.774;12.918;2023-07-29T23:16:31;3.72;;;1.50;;
7013;SDS011;3547;50.774;12.918;2023-07-29T23:18:57;8.50;;;1.70;;
7013;SDS011;3547;50.774;12.918;2023-07-29T23:21:23;2.78;;;1.75;;
7013;SDS011;3547;50.774;12.918;2023-07-29T23:23:49;3.15;;;2.33;;
7013;SDS011;3547;50.774;12.918;2023-07-29T23:26:16;3.55;;;1.77;;
7013;SDS011;3547;50.774;12.918;2023-07-29T23:28:42;4.03;;;1.90;;
7013;SDS011;3547;50.774;12.918;2023-07-29T23:31:08;1.58;;;1.48;;
7013;SDS011;3547;50.774;12.918;2023-07-29T23:33:34;2.08;;;1.50;;
7013;SDS011;3547;50.774;12.918;2023-07-29T23:36:01;1.65;;;1.55;;
7013;SDS011;3547;50.774;12.918;2023-07-29T23:38:27;2.13;;;1.63;;
7013;SDS011;3547;50.774;12.918;2023-07-29T23:40:53;3.33;;;1.52;;
7013;SDS011;3547;50.774;12.918;2023-07-29T23:43:19;1.38;;;1.27;;
7013;SDS011;3547;50.774;12.918;2023-07-29T23:45:45;2.28;;;1.58;;
7013;SDS011;3547;50.774;12.918;2023-07-29T23:51:34;3.85;;;1.80;;
7013;SDS011;3547;50.774;12.918;2023-07-29T23:54:00;1.75;;;1.60;;
7013;SDS011;3547;50.774;12.918;2023-07-29T23:56:26;3.17;;;2.13;;
7013;SDS011;3547;50.774;12.918;2023-07-29T23:58:52;2.20;;;1.67;;
